createdAt,value
2022-10-22T00:01:07.536Z,63.58
2022-10-22T00:03:07.683Z,63.18
2022-10-22T00:06:07.511Z,63.02
2022-10-22T00:08:07.489Z,63.14
2022-10-22T00:10:07.530Z,63
2022-10-22T00:13:07.525Z,63.25
2022-10-22T00:16:07.658Z,63.05
2022-10-22T00:18:07.533Z,62.74
2022-10-22T00:21:07.665Z,62.7
2022-10-22T00:23:07.539Z,63.09
2022-10-22T00:26:07.587Z,62.9
2022-10-22T00:29:07.543Z,63.19
2022-10-22T00:31:07.589Z,63.12
2022-10-22T00:34:07.579Z,63.26
2022-10-22T00:37:07.545Z,63.08
2022-10-22T00:39:07.533Z,63.27
2022-10-22T00:42:07.675Z,63.01
2022-10-22T00:45:07.535Z,63.3
2022-10-22T00:47:07.679Z,63.54
2022-10-22T00:49:07.574Z,63.99
2022-10-22T00:52:07.585Z,64
2022-10-22T00:54:07.731Z,64.21
2022-10-22T00:57:07.544Z,64.13
2022-10-22T01:02:07.639Z,64.62
2022-10-22T01:05:07.539Z,64.45
2022-10-22T01:08:07.731Z,64.88
2022-10-22T01:10:28.081Z,65.04
2022-10-22T01:13:28.503Z,65.02
2022-10-22T01:15:29.415Z,64.88
2022-10-22T01:18:07.548Z,65.01
2022-10-22T01:20:07.578Z,65.06
2022-10-22T01:23:07.519Z,64.97
2022-10-22T01:25:12.051Z,65.13
2022-10-22T01:28:07.511Z,65.01
2022-10-22T01:31:07.641Z,64.82
2022-10-22T01:33:07.535Z,64.78
2022-10-22T01:36:07.670Z,64.9
2022-10-22T01:38:07.542Z,65.08
2022-10-22T01:40:07.554Z,65.03
2022-10-22T01:42:07.659Z,65.19
2022-10-22T01:45:07.548Z,65.02
2022-10-22T01:47:07.679Z,64.99
2022-10-22T01:50:07.538Z,64.68
2022-10-22T01:52:07.610Z,64.68
2022-10-22T01:55:07.555Z,64.44
2022-10-22T01:58:07.630Z,64.44
2022-10-22T02:00:07.588Z,64.28
2022-10-22T02:03:07.757Z,64.19
2022-10-22T02:05:07.577Z,64.28
2022-10-22T02:07:07.582Z,64.61
2022-10-22T02:10:07.549Z,64.42
2022-10-22T02:12:07.601Z,64.56
2022-10-22T02:14:07.589Z,64.52
2022-10-22T02:17:07.603Z,64.86
2022-10-22T02:20:07.561Z,64.45
2022-10-22T02:22:07.568Z,64.58
2022-10-22T02:25:17.290Z,65.09
2022-10-22T02:28:07.543Z,64.24
2022-10-22T02:30:07.918Z,64.14
2022-10-22T02:33:07.535Z,64.55
2022-10-22T02:36:07.557Z,64.33
2022-10-22T02:39:07.619Z,64.19
2022-10-22T02:42:07.568Z,63.9
2022-10-22T02:45:07.555Z,63.79
2022-10-22T02:47:07.620Z,62.74
2022-10-22T02:50:09.398Z,60.89
2022-10-22T02:53:07.883Z,59.73
2022-10-22T02:56:07.760Z,57.76
2022-10-22T02:58:07.590Z,57.5
2022-10-22T03:01:08.709Z,58
2022-10-22T03:03:07.590Z,56.96
2022-10-22T03:05:07.606Z,56.6
2022-10-22T03:08:07.577Z,56.13
2022-10-22T03:10:08.000Z,55.88
2022-10-22T03:13:08.170Z,55.87
2022-10-22T03:16:07.540Z,55.86
2022-10-22T03:18:07.608Z,55.36
2022-10-22T03:21:07.524Z,56.05
2022-10-22T03:23:07.642Z,56.7
2022-10-22T03:26:07.578Z,56.43
2022-10-22T03:28:07.579Z,56.45
2022-10-22T03:31:07.544Z,56.34
2022-10-22T03:34:07.719Z,56.87
2022-10-22T03:37:07.578Z,56.95
2022-10-22T03:40:07.541Z,56.84
2022-10-22T03:42:07.595Z,57.52
2022-10-22T03:45:07.620Z,57.12
2022-10-22T03:47:07.619Z,57.8
2022-10-22T03:49:07.559Z,57.43
2022-10-22T03:52:07.687Z,58.09
2022-10-22T03:54:07.581Z,58.16
2022-10-22T03:57:07.682Z,58.64
2022-10-22T04:00:07.566Z,58.4
2022-10-22T04:02:07.671Z,58.13
2022-10-22T04:06:07.576Z,57
2022-10-22T04:09:07.634Z,56.55
2022-10-22T04:12:07.567Z,57.25
2022-10-22T04:14:07.946Z,57.5
2022-10-22T04:17:07.553Z,58.36
2022-10-22T04:19:08.043Z,58.49
2022-10-22T04:22:07.604Z,59.15
2022-10-22T04:25:07.884Z,58.78
2022-10-22T04:28:07.572Z,59.13
2022-10-22T04:30:07.733Z,59.24
2022-10-22T04:33:07.606Z,59
2022-10-22T04:35:07.725Z,59.07
2022-10-22T04:37:08.304Z,59.39
2022-10-22T04:40:07.660Z,59.55
2022-10-22T04:43:07.559Z,58.7
2022-10-22T04:46:07.639Z,59.12
2022-10-22T04:49:07.600Z,59.64
2022-10-22T04:52:07.597Z,59.97
2022-10-22T04:54:07.608Z,59.95
2022-10-22T04:57:07.604Z,60.36
2022-10-22T05:00:07.581Z,60.2
2022-10-22T05:03:07.592Z,60.37
2022-10-22T05:05:07.573Z,60.42
2022-10-22T05:08:07.597Z,60.63
2022-10-22T05:11:07.631Z,60.66
2022-10-22T05:13:08.157Z,60.77
2022-10-22T05:16:07.626Z,61.04
2022-10-22T05:19:07.597Z,61.24
2022-10-22T05:22:07.590Z,60.71
2022-10-22T05:24:07.609Z,61.01
2022-10-22T05:27:07.677Z,61.62
2022-10-22T05:30:07.575Z,61.67
2022-10-22T05:32:07.623Z,61.56
2022-10-22T05:35:07.585Z,61.76
2022-10-22T05:38:07.635Z,61.7
2022-10-22T05:40:12.810Z,61.85
2022-10-22T05:43:07.576Z,61.75
2022-10-22T05:45:07.744Z,61.83
2022-10-22T05:47:08.324Z,61.8
2022-10-22T05:50:07.735Z,61.87
2022-10-22T05:53:07.577Z,61.81
2022-10-22T05:55:07.967Z,61.71
2022-10-22T05:58:07.592Z,61.61
2022-10-22T06:00:09.542Z,61.91
2022-10-22T06:02:07.654Z,60.9
2022-10-22T06:04:07.633Z,61.36
2022-10-22T06:07:07.618Z,62.13
2022-10-22T06:10:07.632Z,62.14
2022-10-22T06:13:07.558Z,62.08
2022-10-22T06:15:07.575Z,62.17
2022-10-22T06:17:07.568Z,62.03
2022-10-22T06:19:07.588Z,62.1
2022-10-22T06:22:07.546Z,62.01
2022-10-22T06:24:07.572Z,62.07
2022-10-22T06:27:10.719Z,62.03
2022-10-22T06:29:07.592Z,61.89
2022-10-22T06:31:07.613Z,62.03
2022-10-22T06:34:07.567Z,62.02
2022-10-22T06:36:07.814Z,62.1
2022-10-22T06:39:07.592Z,62.03
2022-10-22T06:42:07.576Z,62.25
2022-10-22T06:44:07.662Z,62.09
2022-10-22T06:48:07.631Z,62.04
2022-10-22T06:51:07.637Z,62.12
2022-10-22T06:54:07.592Z,62.24
2022-10-22T06:57:07.594Z,62.18
2022-10-22T06:59:07.652Z,62.28
2022-10-22T07:01:07.704Z,62.13
2022-10-22T07:04:07.592Z,62.2
2022-10-22T07:07:07.632Z,62.3
2022-10-22T07:10:07.610Z,62.23
2022-10-22T07:12:07.655Z,62.09
2022-10-22T07:15:07.619Z,62.27
2022-10-22T07:18:07.589Z,62.57
2022-10-22T07:20:07.589Z,62.5
2022-10-22T07:22:07.606Z,62.28
2022-10-22T07:24:07.602Z,62.35
2022-10-22T07:27:09.358Z,62.28
2022-10-22T07:30:07.750Z,62.3
2022-10-22T07:33:07.574Z,62.37
2022-10-22T07:36:07.610Z,62.55
2022-10-22T07:38:07.580Z,62.71
2022-10-22T07:40:08.312Z,62.57
2022-10-22T07:42:07.610Z,62.61
2022-10-22T07:45:07.586Z,62.53
2022-10-22T07:48:07.617Z,62.58
2022-10-22T07:50:07.869Z,62.58
2022-10-22T07:52:07.839Z,62.57
2022-10-22T07:54:07.901Z,62.79
2022-10-22T07:57:08.071Z,62.61
2022-10-22T08:00:07.589Z,62.86
2022-10-22T08:02:08.659Z,62.81
2022-10-22T08:05:07.566Z,62.88
2022-10-22T08:07:07.589Z,62.86
2022-10-22T08:09:07.612Z,62.88
2022-10-22T08:11:07.696Z,62.97
2022-10-22T08:14:07.716Z,62.75
2022-10-22T08:17:07.588Z,62.75
2022-10-22T08:20:07.724Z,62.86
2022-10-22T08:22:07.604Z,62.99
2022-10-22T08:25:08.004Z,62.98
2022-10-22T08:27:07.671Z,63.17
2022-10-22T08:30:07.967Z,63.07
2022-10-22T08:33:07.629Z,62.99
2022-10-22T08:36:07.643Z,62.64
2022-10-22T08:39:07.594Z,62.85
2022-10-22T08:41:07.693Z,62.91
2022-10-22T08:44:07.654Z,63.33
2022-10-22T08:50:07.647Z,62.21
2022-10-22T08:53:07.599Z,63.93
2022-10-22T08:55:07.601Z,63.05
2022-10-22T08:58:07.680Z,62.29
2022-10-22T09:01:07.604Z,62.16
2022-10-22T09:03:07.619Z,62.19
2022-10-22T09:05:10.051Z,62.02
2022-10-22T09:08:07.647Z,62.38
2022-10-22T09:10:07.662Z,62.25
2022-10-22T09:13:07.611Z,62.29
2022-10-22T09:16:07.632Z,62.13
2022-10-22T09:18:07.906Z,61.98
2022-10-22T09:21:07.601Z,61.9
2022-10-22T09:23:07.671Z,61.8
2022-10-22T09:26:07.663Z,62.17
2022-10-22T09:29:07.626Z,61.62
2022-10-22T09:32:07.693Z,61.64
2022-10-22T09:35:07.641Z,61.88
2022-10-22T09:38:07.627Z,61.48
2022-10-22T09:40:08.106Z,61.23
2022-10-22T09:43:07.643Z,61.31
2022-10-22T09:45:07.751Z,61.38
2022-10-22T09:48:07.647Z,61.41
2022-10-22T09:51:07.656Z,62.27
2022-10-22T09:54:07.618Z,61.68
2022-10-22T09:56:07.646Z,61.57
2022-10-22T09:58:07.659Z,61.4
2022-10-22T10:01:07.709Z,61.2
2022-10-22T10:04:09.748Z,61.21
2022-10-22T10:07:07.684Z,61.17
2022-10-22T10:10:07.645Z,60.73
2022-10-22T10:12:07.654Z,60.74
2022-10-22T10:15:07.624Z,61.85
2022-10-22T10:18:07.690Z,61.65
2022-10-22T10:21:07.695Z,61.11
2022-10-22T10:23:07.724Z,61.48
2022-10-22T10:26:07.646Z,61.46
2022-10-22T10:28:07.779Z,60.6
2022-10-22T10:31:07.678Z,59.66
2022-10-22T10:33:07.735Z,59.47
2022-10-22T10:36:07.651Z,58.78
2022-10-22T10:39:07.668Z,58.15
2022-10-22T10:42:07.679Z,58.25
2022-10-22T10:45:07.653Z,57.54
2022-10-22T10:48:07.626Z,57.05
2022-10-22T10:50:08.045Z,56.12
2022-10-22T10:53:07.718Z,54.26
2022-10-22T10:56:07.836Z,54.28
2022-10-22T10:58:07.678Z,53.14
2022-10-22T11:01:07.790Z,53.88
2022-10-22T11:04:07.645Z,51.82
2022-10-22T11:06:07.851Z,52
2022-10-22T11:08:07.689Z,52.68
2022-10-22T11:11:07.848Z,52.03
2022-10-22T11:13:07.671Z,52.11
2022-10-22T11:16:07.724Z,50.63
2022-10-22T11:18:07.668Z,50.82
2022-10-22T11:21:07.857Z,49.54
2022-10-22T11:24:07.627Z,50.86
2022-10-22T11:26:07.758Z,50.16
2022-10-22T11:29:07.664Z,50.67
2022-10-22T11:32:07.643Z,50.53
2022-10-22T11:35:07.638Z,48.3
2022-10-22T11:38:07.658Z,50.85
2022-10-22T11:40:07.697Z,49.46
2022-10-22T11:43:07.662Z,49.39
2022-10-22T11:45:07.668Z,50.04
2022-10-22T11:48:07.657Z,50.89
2022-10-22T11:51:08.719Z,48.23
2022-10-22T11:54:07.650Z,49.16
2022-10-22T11:56:07.658Z,51.18
2022-10-22T11:58:07.757Z,50.68
2022-10-22T12:00:07.703Z,50.85
2022-10-22T12:03:07.651Z,49.95
2022-10-22T12:05:07.699Z,50.84
2022-10-22T12:08:08.256Z,50.9
2022-10-22T12:11:07.657Z,49.2
2022-10-22T12:13:07.677Z,50.22
2022-10-22T12:15:07.739Z,50.18
2022-10-22T12:17:07.739Z,47.82
2022-10-22T12:20:07.757Z,48.11
2022-10-22T12:23:07.710Z,46.99
2022-10-22T12:25:07.939Z,47.96
2022-10-22T12:28:07.710Z,47.93
2022-10-22T12:30:07.781Z,46.43
2022-10-22T12:33:07.676Z,47.79
2022-10-22T12:36:07.690Z,47.19
2022-10-22T12:39:07.681Z,48.35
2022-10-22T12:42:09.635Z,45.16
2022-10-22T12:45:07.711Z,47.14
2022-10-22T12:47:07.784Z,47.48
2022-10-22T12:50:07.689Z,47.35
2022-10-22T12:52:08.813Z,47.91
2022-10-22T12:55:07.675Z,46.68
2022-10-22T12:57:07.681Z,46.59
2022-10-22T12:59:07.846Z,42.85
2022-10-22T13:02:09.052Z,44.16
2022-10-22T13:04:07.718Z,44.53
2022-10-22T13:07:07.701Z,42.4
2022-10-22T13:09:07.877Z,42.54
2022-10-22T13:12:07.692Z,43.8
2022-10-22T13:15:07.710Z,43.79
2022-10-22T13:18:07.671Z,42.94
2022-10-22T13:20:07.766Z,43.03
2022-10-22T13:23:07.684Z,43.49
2022-10-22T13:26:07.695Z,43.12
2022-10-22T13:28:07.682Z,43.28
2022-10-22T13:31:07.713Z,43.63
2022-10-22T13:34:09.744Z,45.6
2022-10-22T13:37:07.675Z,46.75
2022-10-22T13:40:10.869Z,45.82
2022-10-22T13:43:07.739Z,45.99
2022-10-22T13:46:08.037Z,43.99
2022-10-22T13:48:07.725Z,46.35
2022-10-22T13:51:08.124Z,45.41
2022-10-22T13:53:07.819Z,46.38
2022-10-22T13:56:07.713Z,44.94
2022-10-22T13:58:07.747Z,46.58
2022-10-22T14:01:07.730Z,48.92
2022-10-22T14:03:07.954Z,49.58
2022-10-22T14:06:07.733Z,50.39
2022-10-22T14:09:07.751Z,50.31
2022-10-22T14:11:07.672Z,50.26
2022-10-22T14:13:08.179Z,49.93
2022-10-22T14:15:07.738Z,49.07
2022-10-22T14:18:07.698Z,49.34
2022-10-22T14:21:07.693Z,49.09
2022-10-22T14:24:09.601Z,48.3
2022-10-22T14:26:07.697Z,48.41
2022-10-22T14:29:10.090Z,47.98
2022-10-22T14:31:07.753Z,47.67
2022-10-22T14:34:07.731Z,47.07
2022-10-22T14:37:07.693Z,46.08
2022-10-22T14:39:07.709Z,45.73
2022-10-22T14:42:07.683Z,44.89
2022-10-22T14:44:07.708Z,44.24
2022-10-22T14:46:07.705Z,44.61
2022-10-22T14:48:07.907Z,44.59
2022-10-22T14:50:07.729Z,44.56
2022-10-22T14:53:07.674Z,44.62
2022-10-22T14:55:07.670Z,44.78
2022-10-22T14:57:07.705Z,44.45
2022-10-22T15:00:07.816Z,44.33
2022-10-22T15:02:07.723Z,44.1
2022-10-22T15:05:07.905Z,44.53
2022-10-22T15:08:07.700Z,44.66
2022-10-22T15:11:07.711Z,44.73
2022-10-22T15:13:07.745Z,44.35
2022-10-22T15:15:07.748Z,44.58
2022-10-22T15:18:07.732Z,44.58
2022-10-22T15:21:07.722Z,44.84
2022-10-22T15:23:07.767Z,44.54
2022-10-22T15:26:07.799Z,44.45
2022-10-22T15:28:09.931Z,45.04
2022-10-22T15:30:08.158Z,45.25
2022-10-22T15:33:08.493Z,45.32
2022-10-22T15:36:07.709Z,46
2022-10-22T15:38:07.706Z,46.21
2022-10-22T15:40:07.762Z,46.46
2022-10-22T15:43:07.741Z,46.74
2022-10-22T15:45:07.731Z,46.96
2022-10-22T15:48:07.769Z,47.68
2022-10-22T15:51:07.734Z,48.16
2022-10-22T15:54:10.113Z,48.75
2022-10-22T15:57:07.697Z,49.5
2022-10-22T16:00:07.730Z,49.66
2022-10-22T16:02:07.710Z,49.94
2022-10-22T16:04:07.784Z,50.33
2022-10-22T16:07:07.726Z,51.05
2022-10-22T16:09:07.768Z,51.51
2022-10-22T16:12:07.705Z,52
2022-10-22T16:15:07.726Z,52.26
2022-10-22T16:17:07.751Z,52.36
2022-10-22T16:20:07.743Z,52.9
2022-10-22T16:23:07.832Z,53.07
2022-10-22T16:26:08.039Z,53.17
2022-10-22T16:29:07.726Z,53.5
2022-10-22T16:32:07.733Z,53.87
2022-10-22T16:34:07.753Z,53.96
2022-10-22T16:37:07.923Z,53.78
2022-10-22T16:40:08.452Z,54.23
2022-10-22T16:43:07.714Z,54.27
2022-10-22T16:45:07.783Z,54.13
2022-10-22T16:48:07.741Z,54.37
2022-10-22T16:50:07.753Z,54.42
2022-10-22T16:53:07.750Z,53.96
2022-10-22T16:55:08.427Z,54.01
2022-10-22T16:58:07.863Z,54.36
2022-10-22T17:01:07.749Z,54.5
2022-10-22T17:03:07.758Z,54.59
2022-10-22T17:06:07.988Z,54.87
2022-10-22T17:08:07.788Z,54.87
2022-10-22T17:10:07.800Z,54.93
2022-10-22T17:13:09.585Z,55.13
2022-10-22T17:15:07.794Z,55.3
2022-10-22T17:17:07.831Z,55.35
2022-10-22T17:20:07.768Z,55.71
2022-10-22T17:23:07.743Z,55.62
2022-10-22T17:25:07.799Z,55.8
2022-10-22T17:29:07.963Z,55.91
2022-10-22T17:31:08.286Z,55.94
2022-10-22T17:34:07.813Z,56.17
2022-10-22T17:37:08.037Z,56.29
2022-10-22T17:40:07.754Z,56.58
2022-10-22T17:43:08.582Z,56.71
2022-10-22T17:46:07.789Z,56.69
2022-10-22T17:49:07.865Z,56.9
2022-10-22T17:51:07.791Z,57.08
2022-10-22T17:54:09.050Z,57.18
2022-10-22T17:57:07.781Z,57.59
2022-10-22T17:59:07.897Z,57.25
2022-10-22T18:01:07.885Z,57.13
2022-10-22T18:04:07.870Z,57.3
2022-10-22T18:06:07.811Z,57.4
2022-10-22T18:09:07.767Z,57.44
2022-10-22T18:11:07.786Z,57.82
2022-10-22T18:14:07.785Z,57.93
2022-10-22T18:17:07.810Z,57.85
2022-10-22T18:20:07.990Z,57.93
2022-10-22T18:22:07.776Z,57.93
2022-10-22T18:25:07.842Z,57.74
2022-10-22T18:27:07.776Z,57.62
2022-10-22T18:29:07.815Z,57.85
2022-10-22T18:32:12.219Z,58.42
2022-10-22T18:34:07.811Z,58.52
2022-10-22T18:37:07.746Z,58.68
2022-10-22T18:39:08.798Z,58.68
2022-10-22T18:42:08.127Z,58.64
2022-10-22T18:45:07.764Z,59
2022-10-22T18:48:07.748Z,59.27
2022-10-22T18:50:07.743Z,59.3
2022-10-22T18:53:07.776Z,59.67
2022-10-22T18:56:07.747Z,59.69
2022-10-22T18:59:07.760Z,59.42
2022-10-22T19:01:07.841Z,59.41
2022-10-22T19:04:07.761Z,59.51
2022-10-22T19:06:08.344Z,59.52
2022-10-22T19:09:08.038Z,59.38
2022-10-22T19:12:07.782Z,59.2
2022-10-22T19:14:08.089Z,59.53
2022-10-22T19:17:07.801Z,59.12
2022-10-22T19:20:07.847Z,59.11
2022-10-22T19:22:07.714Z,58.7
2022-10-22T19:24:08.017Z,58.64
2022-10-22T19:27:07.751Z,58.68
2022-10-22T19:29:08.417Z,58.74
2022-10-22T19:35:08.200Z,58.47
2022-10-22T19:37:07.760Z,58.68
2022-10-22T19:40:07.748Z,58.37
2022-10-22T19:43:07.744Z,58.79
2022-10-22T19:45:07.810Z,59.04
2022-10-22T19:47:07.808Z,59.6
2022-10-22T19:49:08.603Z,59.15
2022-10-22T19:52:08.136Z,59.24
2022-10-22T19:55:07.759Z,59.47
2022-10-22T19:57:07.795Z,59.28
2022-10-22T20:00:07.964Z,59.75
2022-10-22T20:03:07.849Z,59.9
2022-10-22T20:06:08.045Z,59.84
2022-10-22T20:08:07.807Z,60.05
2022-10-22T20:10:07.828Z,60.03
2022-10-22T20:13:07.779Z,59.98
2022-10-22T20:15:07.864Z,60.03
2022-10-22T20:18:07.916Z,60.41
2022-10-22T20:20:07.807Z,60.76
2022-10-22T20:23:08.669Z,60.81
2022-10-22T20:26:07.786Z,60.67
2022-10-22T20:28:07.826Z,60.61
2022-10-22T20:31:07.808Z,60.67
2022-10-22T20:34:09.470Z,60.71
2022-10-22T20:37:07.783Z,60.96
2022-10-22T20:40:26.993Z,60.91
2022-10-22T20:43:09.467Z,60.72
2022-10-22T20:46:13.690Z,60.98
2022-10-22T20:48:08.139Z,61.01
2022-10-22T20:51:07.821Z,61.22
2022-10-22T20:54:07.781Z,61.21
2022-10-22T20:56:07.807Z,61.02
2022-10-22T20:59:07.793Z,60.94
2022-10-22T21:01:07.954Z,61.15
2022-10-22T21:04:07.798Z,61.08
2022-10-22T21:06:07.856Z,61.08
2022-10-22T21:09:07.831Z,61.11
2022-10-22T21:11:07.842Z,60.92
2022-10-22T21:14:07.783Z,61.21
2022-10-22T21:16:07.806Z,60.84
2022-10-22T21:19:07.785Z,61.2
2022-10-22T21:21:07.812Z,60.82
2022-10-22T21:24:07.784Z,61
2022-10-22T21:26:07.815Z,61.1
2022-10-22T21:29:07.806Z,61.27
2022-10-22T21:31:07.801Z,61.22
2022-10-22T21:33:08.882Z,61.73
2022-10-22T21:35:07.829Z,61.12
2022-10-22T21:38:07.785Z,61.34
2022-10-22T21:40:07.820Z,61.17
2022-10-22T21:43:07.798Z,61.46
2022-10-22T21:45:10.552Z,61.58
2022-10-22T21:47:07.829Z,61.25
2022-10-22T21:50:07.854Z,61.16
2022-10-22T21:52:07.836Z,61.22
2022-10-22T21:55:07.796Z,60.93
2022-10-22T21:58:07.846Z,61.11
2022-10-22T22:01:07.821Z,60.59
2022-10-22T22:04:07.805Z,60.67
2022-10-22T22:07:07.771Z,60.57
2022-10-22T22:10:07.800Z,60.31
2022-10-22T22:13:07.792Z,60.34
2022-10-22T22:15:07.820Z,60
2022-10-22T22:18:07.777Z,60.13
2022-10-22T22:20:07.849Z,60.19
2022-10-22T22:23:07.825Z,60.52
2022-10-22T22:25:07.844Z,60.26
2022-10-22T22:28:07.800Z,60.56
2022-10-22T22:30:07.822Z,60.2
2022-10-22T22:33:07.837Z,60.82
2022-10-22T22:36:07.799Z,60.86
2022-10-22T22:38:07.827Z,60.3
2022-10-22T22:42:07.847Z,60.73
2022-10-22T22:45:07.832Z,60.84
2022-10-22T22:48:07.835Z,60.39
2022-10-22T22:51:07.857Z,60.52
2022-10-22T22:53:07.868Z,60.6
2022-10-22T22:56:07.857Z,60.89
2022-10-22T22:59:07.860Z,60.66
2022-10-22T23:02:07.800Z,60.66
2022-10-22T23:05:07.866Z,60.48
2022-10-22T23:08:07.805Z,60.62
2022-10-22T23:10:07.838Z,59.91
2022-10-22T23:13:07.865Z,60.45
2022-10-22T23:15:07.869Z,60.08
2022-10-22T23:17:08.382Z,60.65
2022-10-22T23:20:07.830Z,60.63
2022-10-22T23:22:07.856Z,60.56
2022-10-22T23:25:07.853Z,60.4
2022-10-22T23:28:07.796Z,60.63
2022-10-22T23:30:07.841Z,60.76
2022-10-22T23:32:07.835Z,60.44
2022-10-22T23:35:07.873Z,59.99
2022-10-22T23:38:07.795Z,59.84
2022-10-22T23:40:07.857Z,60.68
2022-10-22T23:43:07.873Z,60.62
2022-10-22T23:46:07.840Z,60.2
2022-10-22T23:48:07.899Z,60.07
2022-10-22T23:51:07.838Z,60.36
2022-10-22T23:53:08.401Z,60.01
2022-10-22T23:56:07.899Z,60.78
2022-10-22T23:59:07.947Z,60.73
